createdAt,value
2018-09-05T00:00:38.022Z,94291.27
2018-09-05T00:03:07.432Z,94292.36
2018-09-05T00:05:37.513Z,94298.42
2018-09-05T00:08:06.927Z,94298.09
2018-09-05T00:10:37.457Z,94301.98
2018-09-05T00:13:06.795Z,94309.02
2018-09-05T00:15:36.056Z,94308.50
2018-09-05T00:18:05.503Z,94306.87
2018-09-05T00:20:35.697Z,94312.15
2018-09-05T00:23:05.113Z,94309.32
2018-09-05T00:25:34.403Z,94306.16
2018-09-05T00:28:03.739Z,94310.25
2018-09-05T00:30:33.339Z,94309.18
2018-09-05T00:33:02.800Z,94306.05
2018-09-05T00:35:32.028Z,94305.56
2018-09-05T00:38:01.360Z,94302.91
2018-09-05T00:40:31.306Z,94304.50
2018-09-05T00:43:00.654Z,94308.98
2018-09-05T00:45:30.165Z,94306.33
2018-09-05T00:47:59.574Z,94308.32
2018-09-05T00:50:30.080Z,94317.28
2018-09-05T00:52:59.743Z,94311.25
2018-09-05T00:55:29.899Z,94318.00
2018-09-05T00:57:59.508Z,94316.38
2018-09-05T01:00:30.046Z,94314.08
2018-09-05T01:02:59.715Z,94317.48
2018-09-05T01:05:29.231Z,94313.08
2018-09-05T01:07:58.636Z,94314.31
2018-09-05T01:10:28.030Z,94315.28
2018-09-05T01:12:57.523Z,94316.34
2018-09-05T01:15:26.878Z,94315.86
2018-09-05T01:17:56.240Z,94322.34
2018-09-05T01:20:26.250Z,94318.23
2018-09-05T01:22:55.674Z,94314.83
2018-09-05T01:25:25.376Z,94313.28
2018-09-05T01:27:54.764Z,94313.45
2018-09-05T01:30:27.953Z,94315.00
2018-09-05T01:32:59.243Z,94317.14
2018-09-05T01:35:29.453Z,94313.48
2018-09-05T01:38:01.133Z,94315.07
2018-09-05T01:40:31.414Z,94316.31
2018-09-05T01:43:00.781Z,94314.48
2018-09-05T01:45:30.021Z,94314.48
2018-09-05T01:47:59.425Z,94317.41
2018-09-05T01:50:33.746Z,94315.83
2018-09-05T01:53:03.109Z,94318.72
2018-09-05T01:55:32.535Z,94324.44
2018-09-05T01:58:01.878Z,94330.19
2018-09-05T02:00:35.316Z,94325.70
2018-09-05T02:03:05.555Z,94325.08
2018-09-05T02:05:36.013Z,94325.35
2018-09-05T02:08:05.466Z,94328.05
2018-09-05T02:10:35.935Z,94329.76
2018-09-05T02:13:06.016Z,94328.25
2018-09-05T02:15:35.511Z,94328.25
2018-09-05T02:18:04.906Z,94324.52
2018-09-05T02:20:34.053Z,94327.06
2018-09-05T02:23:03.491Z,94327.14
2018-09-05T02:25:33.083Z,94326.62
2018-09-05T02:28:02.484Z,94324.25
2018-09-05T02:30:32.837Z,94325.08
2018-09-05T02:33:02.089Z,94328.73
2018-09-05T02:35:32.062Z,94329.00
2018-09-05T02:38:01.548Z,94328.69
2018-09-05T02:40:31.149Z,94327.10
2018-09-05T02:43:00.614Z,94325.83
2018-09-05T02:45:30.816Z,94327.38
2018-09-05T02:48:00.102Z,94325.23
2018-09-05T02:50:29.339Z,94318.14
2018-09-05T02:52:58.665Z,94316.83
2018-09-05T02:55:33.008Z,94321.59
2018-09-05T02:58:03.492Z,94316.64
2018-09-05T03:00:33.808Z,94319.48
2018-09-05T03:03:03.314Z,94315.02
2018-09-05T03:05:32.966Z,94319.48
2018-09-05T03:08:02.557Z,94316.08
2018-09-05T03:10:32.103Z,94316.55
2018-09-05T03:13:01.480Z,94322.27
2018-09-05T03:15:31.190Z,94319.88
2018-09-05T03:18:00.902Z,94319.75
2018-09-05T03:20:30.204Z,94320.52
2018-09-05T03:22:59.461Z,94315.84
2018-09-05T03:25:28.905Z,94324.95
2018-09-05T03:27:58.672Z,94322.02
2018-09-05T03:30:28.608Z,94326.22
2018-09-05T03:32:58.009Z,94327.56
2018-09-05T03:35:28.063Z,94324.95
2018-09-05T03:37:57.765Z,94327.14
2018-09-05T03:40:27.491Z,94326.53
2018-09-05T03:42:57.072Z,94330.14
2018-09-05T03:45:27.304Z,94330.89
2018-09-05T03:47:57.752Z,94331.36
2018-09-05T03:50:27.371Z,94332.36
2018-09-05T03:52:56.561Z,94330.02
2018-09-05T03:55:26.070Z,94337.39
2018-09-05T03:57:55.784Z,94333.94
2018-09-05T04:00:25.320Z,94330.48
2018-09-05T04:02:54.752Z,94337.03
2018-09-05T04:05:24.905Z,94325.68
2018-09-05T04:07:54.348Z,94336.28
2018-09-05T04:10:23.632Z,94340.11
2018-09-05T04:12:53.303Z,94345.41
2018-09-05T04:15:22.994Z,94347.08
2018-09-05T04:17:52.522Z,94343.44
2018-09-05T04:20:22.921Z,94350.63
2018-09-05T04:22:52.402Z,94348.61
2018-09-05T04:25:21.866Z,94345.08
2018-09-05T04:27:51.381Z,94361.91
2018-09-05T04:30:20.943Z,94361.16
2018-09-05T04:32:50.325Z,94363.05
2018-09-05T04:35:19.662Z,94363.17
2018-09-05T04:37:49.107Z,94373.16
2018-09-05T04:40:18.392Z,94370.02
2018-09-05T04:42:47.818Z,94366.02
2018-09-05T04:45:17.353Z,94370.27
2018-09-05T04:47:46.794Z,94365.13
2018-09-05T04:50:16.220Z,94375.94
2018-09-05T04:52:45.738Z,94373.59
2018-09-05T04:55:15.347Z,94374.44
2018-09-05T04:57:44.770Z,94374.25
2018-09-05T05:00:14.240Z,94372.95
2018-09-05T05:02:44.749Z,94374.06
2018-09-05T05:05:14.399Z,94376.45
2018-09-05T05:07:45.915Z,94370.44
2018-09-05T05:10:18.306Z,94369.45
2018-09-05T05:12:47.591Z,94368.42
2018-09-05T05:15:18.274Z,94364.98
2018-09-05T05:17:48.747Z,94369.36
2018-09-05T05:20:18.950Z,94374.33
2018-09-05T05:22:48.770Z,94374.50
2018-09-05T05:25:19.187Z,94379.40
2018-09-05T05:27:48.930Z,94373.05
2018-09-05T05:30:18.470Z,94381.63
2018-09-05T05:32:48.252Z,94380.88
2018-09-05T05:35:18.056Z,94380.79
2018-09-05T05:37:47.590Z,94387.60
2018-09-05T05:40:17.618Z,94381.55
2018-09-05T05:42:47.278Z,94382.23
2018-09-05T05:45:16.666Z,94390.22
2018-09-05T05:47:46.141Z,94392.69
2018-09-05T05:50:15.574Z,94389.31
2018-09-05T05:52:45.569Z,94385.17
2018-09-05T05:55:15.084Z,94389.84
2018-09-05T05:57:44.491Z,94391.66
2018-09-05T06:00:14.439Z,94391.84
2018-09-05T06:02:43.764Z,94390.63
2018-09-05T06:05:13.317Z,94391.15
2018-09-05T06:07:43.012Z,94394.88
2018-09-05T06:10:12.572Z,94402.30
2018-09-05T06:12:41.959Z,94398.56
2018-09-05T06:15:11.444Z,94400.85
2018-09-05T06:17:40.723Z,94406.45
2018-09-05T06:20:10.474Z,94401.73
2018-09-05T06:22:43.364Z,94398.72
2018-09-05T06:25:13.553Z,94400.06
2018-09-05T06:27:43.251Z,94399.12
2018-09-05T06:30:15.784Z,94394.67
2018-09-05T06:32:45.258Z,94393.51
2018-09-05T06:35:15.560Z,94393.47
2018-09-05T06:37:45.050Z,94393.39
2018-09-05T06:40:14.993Z,94394.63
2018-09-05T06:42:44.463Z,94396.50
2018-09-05T06:45:14.146Z,94388.07
2018-09-05T06:47:43.496Z,94390.03
2018-09-05T06:50:12.789Z,94388.79
2018-09-05T06:52:42.240Z,94383.67
2018-09-05T06:55:11.774Z,94378.69
2018-09-05T06:57:42.223Z,94375.04
2018-09-05T07:00:14.897Z,94379.83
2018-09-05T07:02:44.616Z,94381.13
2018-09-05T07:05:15.649Z,94382.41
2018-09-05T07:07:45.154Z,94379.00
2018-09-05T07:10:14.653Z,94381.38
2018-09-05T07:12:44.163Z,94381.84
2018-09-05T07:15:13.724Z,94375.06
2018-09-05T07:17:43.615Z,94374.25
2018-09-05T07:20:13.297Z,94371.88
2018-09-05T07:22:43.466Z,94369.78
2018-09-05T07:25:12.921Z,94374.84
2018-09-05T07:27:42.480Z,94371.92
2018-09-05T07:30:12.002Z,94377.16
2018-09-05T07:32:41.376Z,94367.44
2018-09-05T07:35:10.763Z,94373.52
2018-09-05T07:37:40.115Z,94377.21
2018-09-05T07:40:09.408Z,94376.14
2018-09-05T07:42:38.716Z,94377.97
2018-09-05T07:45:07.957Z,94379.02
2018-09-05T07:47:37.317Z,94380.34
2018-09-05T07:50:06.907Z,94387.47
2018-09-05T07:52:36.262Z,94381.24
2018-09-05T07:55:05.574Z,94382.88
2018-09-05T07:57:34.925Z,94383.37
2018-09-05T08:00:04.695Z,94382.62
2018-09-05T08:02:34.039Z,94378.69
2018-09-05T08:05:03.342Z,94380.55
2018-09-05T08:07:32.863Z,94379.88
2018-09-05T08:10:02.260Z,94380.75
2018-09-05T08:12:31.592Z,94378.09
2018-09-05T08:15:01.056Z,94381.21
2018-09-05T08:17:30.554Z,94377.09
2018-09-05T08:19:59.855Z,94365.03
2018-09-05T08:22:29.247Z,94374.69
2018-09-05T08:24:58.782Z,94374.71
2018-09-05T08:27:28.906Z,94368.27
2018-09-05T08:29:58.345Z,94364.02
2018-09-05T08:32:27.817Z,94366.61
2018-09-05T08:34:57.637Z,94360.50
2018-09-05T08:37:26.971Z,94355.88
2018-09-05T08:39:56.077Z,94352.98
2018-09-05T08:42:25.529Z,94354.46
2018-09-05T08:44:55.072Z,94351.40
2018-09-05T08:47:24.527Z,94361.24
2018-09-05T08:49:53.805Z,94349.03
2018-09-05T08:52:23.231Z,94351.88
2018-09-05T08:54:52.573Z,94351.73
2018-09-05T08:57:26.244Z,94348.50
2018-09-05T08:59:55.705Z,94348.30
2018-09-05T09:02:25.201Z,94346.16
2018-09-05T09:04:54.899Z,94349.44
2018-09-05T09:07:24.202Z,94345.47
2018-09-05T09:09:53.755Z,94339.95
2018-09-05T09:12:23.240Z,94342.08
2018-09-05T09:14:52.531Z,94346.60
2018-09-05T09:17:21.944Z,94335.31
2018-09-05T09:19:51.358Z,94333.27
2018-09-05T09:22:20.632Z,94329.45
2018-09-05T09:24:50.272Z,94333.42
2018-09-05T09:27:19.872Z,94326.22
2018-09-05T09:29:49.255Z,94330.95
2018-09-05T09:32:19.268Z,94327.03
2018-09-05T09:34:48.866Z,94327.57
2018-09-05T09:37:18.256Z,94327.82
2018-09-05T09:39:47.597Z,94325.20
2018-09-05T09:42:16.721Z,94322.66
2018-09-05T09:44:46.129Z,94310.93
2018-09-05T09:47:15.540Z,94311.59
2018-09-05T09:49:45.575Z,94310.81
2018-09-05T09:52:20.299Z,94307.15
2018-09-05T09:54:51.533Z,94303.42
2018-09-05T09:57:23.261Z,94293.45
2018-09-05T09:59:52.826Z,94294.46
2018-09-05T10:02:27.537Z,94288.80
2018-09-05T10:05:02.064Z,94283.67
2018-09-05T10:07:36.853Z,94282.84
2018-09-05T10:10:11.634Z,94284.52
2018-09-05T10:12:47.133Z,94281.70
2018-09-05T10:15:21.604Z,94280.48
2018-09-05T10:17:56.444Z,94283.70
2018-09-05T10:20:25.953Z,94271.41
2018-09-05T10:22:55.300Z,94266.52
2018-09-05T10:25:24.898Z,94265.69
2018-09-05T10:27:54.426Z,94263.59
2018-09-05T10:30:24.185Z,94258.48
2018-09-05T10:32:54.261Z,94257.02
2018-09-05T10:35:23.730Z,94256.82
2018-09-05T10:37:53.639Z,94250.09
2018-09-05T10:40:23.458Z,94250.47
2018-09-05T10:42:53.428Z,94252.73
2018-09-05T10:45:23.833Z,94242.82
2018-09-05T10:47:55.006Z,94236.84
2018-09-05T10:50:27.360Z,94237.76
2018-09-05T10:52:57.630Z,94240.17
2018-09-05T10:55:29.328Z,94238.08
2018-09-05T10:57:59.791Z,94232.06
2018-09-05T11:00:29.746Z,94239.28
2018-09-05T11:02:59.363Z,94243.02
2018-09-05T11:05:29.173Z,94236.91
2018-09-05T11:07:59.198Z,94231.68
2018-09-05T11:10:29.262Z,94227.85
2018-09-05T11:12:59.205Z,94223.96
2018-09-05T11:15:29.883Z,94227.03
2018-09-05T11:17:59.122Z,94227.67
2018-09-05T11:20:28.549Z,94220.82
2018-09-05T11:22:57.883Z,94222.87
2018-09-05T11:25:27.228Z,94223.17
2018-09-05T11:27:57.606Z,94217.14
2018-09-05T11:30:27.889Z,94218.78
2018-09-05T11:32:58.498Z,94218.94
2018-09-05T11:35:29.495Z,94218.38
2018-09-05T11:37:59.103Z,94220.63
2018-09-05T11:40:29.269Z,94222.98
2018-09-05T11:42:59.121Z,94217.92
2018-09-05T11:45:28.483Z,94217.98
2018-09-05T11:47:58.412Z,94219.97
2018-09-05T11:50:27.724Z,94212.62
2018-09-05T11:52:58.405Z,94213.91
2018-09-05T11:55:28.097Z,94206.74
2018-09-05T11:57:57.705Z,94201.81
2018-09-05T12:00:27.002Z,94199.64
2018-09-05T12:02:56.502Z,94200.99
2018-09-05T12:05:25.734Z,94187.81
2018-09-05T12:07:55.184Z,94189.59
2018-09-05T12:10:24.920Z,94180.80
2018-09-05T12:12:55.316Z,94184.32
2018-09-05T12:15:24.755Z,94180.90
2018-09-05T12:17:54.226Z,94173.00
2018-09-05T12:20:23.532Z,94176.28
2018-09-05T12:23:20.395Z,94177.03
2018-09-05T12:25:50.229Z,94168.63
2018-09-05T12:28:19.796Z,94169.41
2018-09-05T12:30:49.303Z,94167.41
2018-09-05T12:33:18.942Z,94170.37
2018-09-05T12:35:48.258Z,94162.56
2018-09-05T12:38:17.979Z,94160.88
2018-09-05T12:40:47.222Z,94162.39
2018-09-05T12:43:16.865Z,94158.16
2018-09-05T12:45:46.575Z,94153.94
2018-09-05T12:48:16.387Z,94146.59
2018-09-05T12:50:46.099Z,94151.99
2018-09-05T12:53:15.707Z,94153.03
2018-09-05T12:55:45.618Z,94147.45
2018-09-05T12:58:15.331Z,94137.86
2018-09-05T13:00:46.202Z,94135.81
2018-09-05T13:03:15.827Z,94140.05
2018-09-05T13:05:45.085Z,94128.84
2018-09-05T13:08:14.691Z,94123.95
2018-09-05T13:10:44.165Z,94129.56
2018-09-05T13:13:16.046Z,94121.72
2018-09-05T13:15:45.725Z,94127.98
2018-09-05T13:18:15.575Z,94121.95
2018-09-05T13:20:45.301Z,94117.41
2018-09-05T13:23:15.791Z,94124.37
2018-09-05T13:25:46.901Z,94119.12
2018-09-05T13:28:16.505Z,94120.72
2018-09-05T13:30:46.379Z,94126.82
2018-09-05T13:33:16.399Z,94120.39
2018-09-05T13:35:46.185Z,94118.81
2018-09-05T13:38:16.853Z,94112.33
2018-09-05T13:40:46.292Z,94120.08
2018-09-05T13:43:16.151Z,94120.53
2018-09-05T13:45:45.782Z,94121.02
2018-09-05T13:48:16.190Z,94117.18
2018-09-05T13:50:46.024Z,94122.02
2018-09-05T13:53:16.839Z,94114.41
2018-09-05T13:55:46.343Z,94115.67
2018-09-05T13:58:15.924Z,94112.23
2018-09-05T14:00:45.603Z,94110.84
2018-09-05T14:03:15.814Z,94113.22
2018-09-05T14:05:46.136Z,94111.08
2018-09-05T14:08:16.277Z,94114.48
2018-09-05T14:10:46.828Z,94114.24
2018-09-05T14:13:16.347Z,94115.42
2018-09-05T14:15:46.107Z,94116.36
2018-09-05T14:18:16.091Z,94116.80
2018-09-05T14:20:45.461Z,94112.22
2018-09-05T14:23:14.872Z,94111.89
2018-09-05T14:25:44.305Z,94109.03
2018-09-05T14:28:14.165Z,94103.66
2018-09-05T14:30:44.728Z,94113.08
2018-09-05T14:33:14.654Z,94108.48
2018-09-05T14:35:45.214Z,94115.66
2018-09-05T14:38:15.217Z,94117.57
2018-09-05T14:40:44.954Z,94113.01
2018-09-05T14:43:15.468Z,94112.23
2018-09-05T14:45:44.931Z,94109.36
2018-09-05T14:48:16.171Z,94116.81
2018-09-05T14:50:46.196Z,94106.69
2018-09-05T14:53:15.479Z,94105.83
2018-09-05T14:55:46.048Z,94104.41
2018-09-05T14:58:15.664Z,94104.48
2018-09-05T15:00:45.129Z,94107.52
2018-09-05T15:03:14.777Z,94110.04
2018-09-05T15:05:44.200Z,94111.96
2018-09-05T15:08:13.551Z,94107.86
2018-09-05T15:10:44.009Z,94099.85
2018-09-05T15:13:13.915Z,94114.33
2018-09-05T15:15:44.236Z,94104.38
2018-09-05T15:18:14.166Z,94110.90
2018-09-05T15:20:44.080Z,94105.58
2018-09-05T15:23:14.226Z,94102.78
2018-09-05T15:25:44.526Z,94105.72
2018-09-05T15:28:14.444Z,94108.27
2018-09-05T15:30:43.887Z,94107.41
2018-09-05T15:33:13.350Z,94106.16
2018-09-05T15:35:44.286Z,94103.36
2018-09-05T15:38:14.097Z,94103.66
2018-09-05T15:40:44.069Z,94104.92
2018-09-05T15:43:14.856Z,94107.14
2018-09-05T15:45:44.607Z,94104.75
2018-09-05T15:48:14.125Z,94100.56
2018-09-05T15:50:43.633Z,94098.08
2018-09-05T15:53:13.222Z,94097.46
2018-09-05T15:55:42.932Z,94102.63
2018-09-05T15:58:12.525Z,94102.17
2018-09-05T16:00:42.031Z,94105.16
2018-09-05T16:03:11.512Z,94111.71
2018-09-05T16:05:41.167Z,94108.20
2018-09-05T16:08:10.727Z,94109.28
2018-09-05T16:10:40.415Z,94113.93
2018-09-05T16:13:09.876Z,94115.31
2018-09-05T16:15:39.621Z,94111.48
2018-09-05T16:18:09.014Z,94121.62
2018-09-05T16:20:39.422Z,94111.77
2018-09-05T16:23:09.721Z,94112.55
2018-09-05T16:25:39.414Z,94116.12
2018-09-05T16:28:13.123Z,94114.83
2018-09-05T16:30:42.700Z,94121.23
2018-09-05T16:33:12.281Z,94119.63
2018-09-05T16:35:42.367Z,94123.92
2018-09-05T16:38:12.783Z,94128.95
2018-09-05T16:40:42.479Z,94126.56
2018-09-05T16:43:11.986Z,94121.23
2018-09-05T16:45:41.393Z,94123.16
2018-09-05T16:48:11.840Z,94128.73
2018-09-05T16:50:41.233Z,94136.95
2018-09-05T16:53:11.109Z,94130.47
2018-09-05T16:55:41.173Z,94133.77
2018-09-05T16:58:10.689Z,94140.09
2018-09-05T17:00:40.448Z,94136.64
2018-09-05T17:03:09.952Z,94135.96
2018-09-05T17:05:39.196Z,94136.83
2018-09-05T17:08:08.635Z,94138.38
2018-09-05T17:10:38.799Z,94139.19
2018-09-05T17:13:09.092Z,94140.26
2018-09-05T17:15:38.812Z,94137.38
2018-09-05T17:18:08.272Z,94138.17
2018-09-05T17:20:37.783Z,94141.44
2018-09-05T17:23:07.122Z,94143.05
2018-09-05T17:25:36.904Z,94142.84
2018-09-05T17:28:06.472Z,94142.89
2018-09-05T17:30:36.105Z,94143.22
2018-09-05T17:33:05.407Z,94138.77
2018-09-05T17:35:35.201Z,94138.05
2018-09-05T17:38:04.525Z,94144.93
2018-09-05T17:40:34.160Z,94140.23
2018-09-05T17:43:03.976Z,94145.23
2018-09-05T17:45:33.837Z,94143.97
2018-09-05T17:48:05.127Z,94144.23
2018-09-05T17:50:36.440Z,94152.70
2018-09-05T17:53:05.840Z,94155.61
2018-09-05T17:55:35.186Z,94155.34
2018-09-05T17:58:05.929Z,94155.64
2018-09-05T18:00:35.361Z,94155.64
2018-09-05T18:03:04.887Z,94160.41
2018-09-05T18:05:35.757Z,94159.09
2018-09-05T18:08:05.193Z,94158.83
2018-09-05T18:10:34.529Z,94171.19
2018-09-05T18:13:04.766Z,94174.07
2018-09-05T18:15:34.632Z,94178.03
2018-09-05T18:18:04.212Z,94180.91
2018-09-05T18:20:34.512Z,94179.86
2018-09-05T18:23:04.041Z,94184.80
2018-09-05T18:25:33.629Z,94190.32
2018-09-05T18:28:03.307Z,94188.76
2018-09-05T18:30:32.591Z,94187.70
2018-09-05T18:33:02.047Z,94191.11
2018-09-05T18:35:31.511Z,94192.92
2018-09-05T18:38:01.099Z,94193.99
2018-09-05T18:40:30.549Z,94203.70
2018-09-05T18:43:00.433Z,94203.15
2018-09-05T18:45:29.988Z,94203.41
2018-09-05T18:47:59.756Z,94197.61
2018-09-05T18:50:30.192Z,94205.49
2018-09-05T18:53:04.871Z,94201.57
2018-09-05T18:55:35.492Z,94200.14
2018-09-05T18:58:05.255Z,94201.67
2018-09-05T19:00:37.208Z,94210.87
2018-09-05T19:03:08.709Z,94207.70
2018-09-05T19:05:39.210Z,94205.63
2018-09-05T19:08:09.829Z,94203.81
2018-09-05T19:10:41.501Z,94208.80
2018-09-05T19:13:11.005Z,94211.78
2018-09-05T19:15:40.551Z,94218.53
2018-09-05T19:18:10.589Z,94218.26
2018-09-05T19:20:40.987Z,94218.44
2018-09-05T19:23:10.482Z,94221.38
2018-09-05T19:25:41.001Z,94219.98
2018-09-05T19:28:10.397Z,94219.56
2018-09-05T19:30:40.819Z,94221.51
2018-09-05T19:33:10.828Z,94224.36
2018-09-05T19:35:40.840Z,94220.97
2018-09-05T19:38:11.139Z,94227.52
2018-09-05T19:40:40.969Z,94219.66
2018-09-05T19:43:14.633Z,94222.32
2018-09-05T19:45:43.984Z,94229.13
2018-09-05T19:48:15.638Z,94222.33
2018-09-05T19:50:46.105Z,94226.39
2018-09-05T19:53:21.329Z,94223.20
2018-09-05T19:55:50.924Z,94234.14
2018-09-05T19:58:21.449Z,94241.93
2018-09-05T20:00:50.971Z,94231.22
2018-09-05T20:03:20.928Z,94228.66
2018-09-05T20:05:51.126Z,94232.92
2018-09-05T20:08:21.487Z,94228.75
2018-09-05T20:10:51.093Z,94231.84
2018-09-05T20:13:20.959Z,94235.69
2018-09-05T20:15:51.652Z,94236.97
2018-09-05T20:18:21.983Z,94237.23
2018-09-05T20:20:51.776Z,94235.55
2018-09-05T20:23:21.382Z,94240.31
2018-09-05T20:25:51.668Z,94241.66
2018-09-05T20:28:23.026Z,94238.55
2018-09-05T20:30:52.708Z,94235.62
2018-09-05T20:33:22.373Z,94233.28
2018-09-05T20:35:52.629Z,94230.82
2018-09-05T20:38:22.253Z,94231.80
2018-09-05T20:40:52.068Z,94231.61
2018-09-05T20:43:21.343Z,94235.14
2018-09-05T20:45:50.863Z,94228.84
2018-09-05T20:48:20.172Z,94232.34
2018-09-05T20:50:49.499Z,94231.64
2018-09-05T20:53:18.891Z,94225.77
2018-09-05T20:55:48.415Z,94226.80
2018-09-05T20:58:18.617Z,94232.03
2018-09-05T21:00:48.478Z,94231.89
2018-09-05T21:03:17.873Z,94238.20
2018-09-05T21:05:47.951Z,94232.11
2018-09-05T21:08:17.327Z,94238.70
2018-09-05T21:10:46.788Z,94235.27
2018-09-05T21:13:16.164Z,94233.88
2018-09-05T21:15:45.659Z,94232.02
2018-09-05T21:18:15.164Z,94234.00
2018-09-05T21:20:44.407Z,94233.80
2018-09-05T21:23:14.427Z,94232.09
2018-09-05T21:25:45.610Z,94236.10
2018-09-05T21:28:17.703Z,94238.80
2018-09-05T21:30:47.091Z,94242.33
2018-09-05T21:33:18.064Z,94241.30
2018-09-05T21:35:47.435Z,94238.52
2018-09-05T21:38:16.847Z,94238.08
2018-09-05T21:40:47.432Z,94234.28
2018-09-05T21:43:17.582Z,94235.98
2018-09-05T21:45:48.057Z,94235.58
2018-09-05T21:48:18.504Z,94235.82
2018-09-05T21:50:48.136Z,94231.56
2018-09-05T21:53:18.089Z,94232.92
2018-09-05T21:55:47.492Z,94235.50
2018-09-05T21:58:16.830Z,94236.97
2018-09-05T22:00:47.677Z,94239.69
2018-09-05T22:03:17.604Z,94246.41
2018-09-05T22:05:48.080Z,94238.85
2018-09-05T22:08:17.961Z,94232.04
2018-09-05T22:10:47.924Z,94232.09
2018-09-05T22:13:18.295Z,94235.55
2018-09-05T22:15:48.630Z,94235.75
2018-09-05T22:18:18.785Z,94244.31
2018-09-05T22:20:48.021Z,94242.73
2018-09-05T22:23:17.380Z,94249.27
2018-09-05T22:25:46.623Z,94247.83
2018-09-05T22:28:16.047Z,94246.19
2018-09-05T22:30:45.589Z,94243.39
2018-09-05T22:33:16.093Z,94232.84
2018-09-05T22:35:46.941Z,94240.83
2018-09-05T22:38:16.953Z,94235.64
2018-09-05T22:40:53.699Z,94234.72
2018-09-05T22:43:35.160Z,94231.59
2018-09-05T22:46:15.109Z,94232.86
2018-09-05T22:49:11.754Z,94231.02
2018-09-05T22:52:24.886Z,94226.11
2018-09-05T22:56:41.505Z,94225.92
2018-09-05T23:00:29.564Z,94228.91
2018-09-05T23:03:09.603Z,94223.76
2018-09-05T23:05:50.790Z,94217.08
2018-09-05T23:08:40.720Z,94225.73
2018-09-05T23:11:21.684Z,94226.53
2018-09-05T23:14:01.947Z,94223.79
2018-09-05T23:16:43.135Z,94218.07
2018-09-05T23:19:48.148Z,94217.53
2018-09-05T23:22:17.513Z,94220.65
2018-09-05T23:24:47.016Z,94221.72
2018-09-05T23:27:16.331Z,94217.34
2018-09-05T23:29:45.985Z,94219.06
2018-09-05T23:32:16.513Z,94218.09
2018-09-05T23:34:46.270Z,94215.08
2018-09-05T23:37:15.913Z,94220.88
2018-09-05T23:39:45.395Z,94216.80
2018-09-05T23:42:14.812Z,94205.91
2018-09-05T23:44:44.364Z,94210.09
2018-09-05T23:47:13.886Z,94204.61
2018-09-05T23:49:43.348Z,94203.02
2018-09-05T23:52:12.824Z,94208.19
2018-09-05T23:54:42.459Z,94203.02
2018-09-05T23:57:11.734Z,94200.57
2018-09-05T23:59:41.068Z,94195.53
